createdAt,value
2022-12-28T00:01:57.564Z,5.10
2022-12-28T00:04:24.217Z,4.97
2022-12-28T00:06:53.391Z,6.40
2022-12-28T00:09:20.105Z,5.90
2022-12-28T00:11:46.958Z,5.57
2022-12-28T00:14:16.475Z,5.93
2022-12-28T00:16:43.801Z,6.43
2022-12-28T00:19:16.066Z,5.70
2022-12-28T00:21:44.166Z,5.67
2022-12-28T00:24:22.660Z,5.73
2022-12-28T00:26:50.849Z,5.97
2022-12-28T00:29:20.141Z,6.30
2022-12-28T00:31:46.861Z,5.97
2022-12-28T00:34:14.191Z,6.15
2022-12-28T00:37:10.533Z,5.67
2022-12-28T00:39:30.188Z,6.47
2022-12-28T00:41:56.837Z,7.00
2022-12-28T00:44:25.705Z,7.30
2022-12-28T00:46:52.550Z,6.00
2022-12-28T00:49:21.573Z,6.47
2022-12-28T00:51:48.223Z,7.03
2022-12-28T00:54:14.906Z,6.97
2022-12-28T00:56:45.431Z,6.67
2022-12-28T00:59:15.053Z,7.40
2022-12-28T01:01:41.848Z,7.27
2022-12-28T01:04:11.207Z,5.93
2022-12-28T01:06:40.352Z,5.37
2022-12-28T01:09:09.349Z,5.80
2022-12-28T01:11:38.243Z,5.33
2022-12-28T01:14:04.901Z,5.60
2022-12-28T01:16:35.080Z,5.73
2022-12-28T01:19:05.736Z,5.57
2022-12-28T01:21:34.513Z,5.78
2022-12-28T01:24:03.736Z,5.60
2022-12-28T01:26:30.537Z,4.87
2022-12-28T01:28:58.687Z,5.83
2022-12-28T01:31:26.140Z,4.47
2022-12-28T01:33:53.968Z,4.93
2022-12-28T01:36:23.630Z,5.47
2022-12-28T01:39:00.494Z,5.90
2022-12-28T01:41:31.563Z,5.40
2022-12-28T01:43:58.133Z,5.00
2022-12-28T01:46:45.620Z,5.75
2022-12-28T01:49:18.682Z,5.33
2022-12-28T01:51:58.370Z,5.90
2022-12-28T01:54:27.508Z,4.77
2022-12-28T01:56:54.358Z,5.45
2022-12-28T01:59:24.604Z,5.63
2022-12-28T02:01:51.807Z,6.53
2022-12-28T02:04:18.587Z,5.13
2022-12-28T02:06:45.993Z,5.87
2022-12-28T02:09:19.427Z,4.83
2022-12-28T02:11:51.862Z,5.17
2022-12-28T02:14:20.078Z,5.07
2022-12-28T02:16:47.010Z,4.83
2022-12-28T02:19:18.467Z,4.47
2022-12-28T02:21:59.730Z,5.10
2022-12-28T02:24:38.185Z,5.07
2022-12-28T02:27:29.692Z,5.43
2022-12-28T02:30:05.993Z,5.10
2022-12-28T02:32:57.594Z,5.07
2022-12-28T02:35:49.240Z,4.67
2022-12-28T02:38:30.804Z,5.00
2022-12-28T02:41:09.467Z,4.73
2022-12-28T02:43:36.739Z,5.27
2022-12-28T02:46:52.665Z,4.83
2022-12-28T02:49:42.941Z,4.73
2022-12-28T02:52:45.565Z,4.27
2022-12-28T02:55:49.803Z,4.60
2022-12-28T02:58:22.347Z,5.50
2022-12-28T03:01:13.268Z,4.87
2022-12-28T03:04:06.250Z,4.80
2022-12-28T03:07:09.456Z,4.00
2022-12-28T03:10:02.469Z,3.90
2022-12-28T03:12:36.494Z,3.73
2022-12-28T03:15:11.550Z,4.27
2022-12-28T03:18:01.658Z,5.07
2022-12-28T03:20:49.844Z,3.80
2022-12-28T03:23:38.311Z,3.43
2022-12-28T03:26:28.494Z,4.13
2022-12-28T03:29:15.568Z,3.47
2022-12-28T03:31:45.152Z,4.10
2022-12-28T03:34:14.570Z,3.40
2022-12-28T03:37:13.260Z,3.87
2022-12-28T03:39:45.872Z,4.67
2022-12-28T03:42:34.935Z,3.60
2022-12-28T03:45:45.323Z,3.57
2022-12-28T03:48:12.460Z,4.10
2022-12-28T03:50:44.225Z,4.07
2022-12-28T03:53:14.028Z,3.47
2022-12-28T03:55:43.323Z,4.43
2022-12-28T03:58:12.455Z,3.90
2022-12-28T04:00:39.213Z,4.90
2022-12-28T04:03:05.964Z,3.73
2022-12-28T04:05:32.996Z,3.40
2022-12-28T04:08:01.835Z,3.70
2022-12-28T04:10:28.557Z,3.70
2022-12-28T04:12:56.781Z,3.60
2022-12-28T04:15:26.050Z,4.07
2022-12-28T04:17:52.763Z,3.50
2022-12-28T04:20:19.411Z,4.90
2022-12-28T04:22:46.042Z,3.78
2022-12-28T04:25:12.713Z,3.73
2022-12-28T04:27:39.377Z,3.57
2022-12-28T04:30:09.256Z,3.60
2022-12-28T04:32:38.443Z,3.70
2022-12-28T04:35:05.490Z,3.87
2022-12-28T04:37:32.271Z,3.50
2022-12-28T04:39:59.316Z,3.70
2022-12-28T04:42:26.441Z,4.00
2022-12-28T04:44:53.178Z,4.43
2022-12-28T04:47:19.885Z,3.40
2022-12-28T04:49:46.723Z,3.57
2022-12-28T04:52:15.538Z,3.93
2022-12-28T04:54:42.146Z,3.67
2022-12-28T04:57:08.816Z,3.67
2022-12-28T04:59:35.527Z,3.00
2022-12-28T05:02:02.325Z,3.33
2022-12-28T05:04:29.069Z,3.33
2022-12-28T05:06:58.008Z,2.87
2022-12-28T05:09:27.096Z,2.97
2022-12-28T05:11:53.942Z,3.10
2022-12-28T05:14:20.609Z,3.10
2022-12-28T05:16:51.286Z,2.70
2022-12-28T05:19:18.133Z,2.87
2022-12-28T05:21:44.901Z,2.77
2022-12-28T05:24:13.735Z,2.92
2022-12-28T05:26:40.465Z,2.87
2022-12-28T05:29:07.147Z,4.70
2022-12-28T05:31:36.143Z,2.63
2022-12-28T05:34:03.300Z,2.57
2022-12-28T05:36:33.764Z,3.13
2022-12-28T05:39:00.575Z,2.70
2022-12-28T05:41:28.711Z,2.27
2022-12-28T05:43:57.340Z,2.50
2022-12-28T05:46:30.035Z,2.77
2022-12-28T05:48:57.482Z,2.93
2022-12-28T05:51:26.888Z,3.70
2022-12-28T05:53:59.013Z,2.80
2022-12-28T05:56:28.554Z,3.17
2022-12-28T05:58:57.884Z,3.25
2022-12-28T06:01:30.157Z,2.90
2022-12-28T06:04:08.814Z,2.73
2022-12-28T06:06:36.078Z,2.67
2022-12-28T06:09:05.419Z,3.87
2022-12-28T06:11:32.556Z,2.90
2022-12-28T06:14:00.188Z,2.50
2022-12-28T06:16:31.759Z,3.13
2022-12-28T06:19:01.592Z,3.17
2022-12-28T06:21:31.378Z,3.27
2022-12-28T06:24:02.399Z,2.50
2022-12-28T06:26:33.467Z,2.30
2022-12-28T06:29:01.831Z,2.53
2022-12-28T06:31:34.648Z,2.57
2022-12-28T06:34:03.117Z,2.37
2022-12-28T06:36:33.124Z,2.67
2022-12-28T06:39:03.678Z,2.43
2022-12-28T06:41:30.481Z,2.23
2022-12-28T06:44:01.078Z,1.80
2022-12-28T06:46:31.865Z,2.67
2022-12-28T06:48:58.724Z,2.30
2022-12-28T06:51:30.819Z,2.20
2022-12-28T06:53:57.747Z,1.70
2022-12-28T06:56:30.917Z,1.87
2022-12-28T06:59:02.836Z,1.93
2022-12-28T07:01:36.475Z,2.03
2022-12-28T07:04:07.035Z,2.10
2022-12-28T07:06:39.865Z,2.93
2022-12-28T07:09:09.765Z,2.07
2022-12-28T07:11:38.950Z,1.87
2022-12-28T07:14:05.738Z,1.90
2022-12-28T07:18:59.748Z,2.10
2022-12-28T07:21:29.367Z,2.00
2022-12-28T07:24:00.884Z,1.70
2022-12-28T07:26:35.160Z,1.87
2022-12-28T07:29:05.283Z,3.10
2022-12-28T07:31:39.788Z,2.60
2022-12-28T07:34:14.903Z,2.33
2022-12-28T07:36:44.052Z,2.13
2022-12-28T07:39:13.413Z,3.00
2022-12-28T07:41:40.240Z,2.20
2022-12-28T07:44:07.323Z,2.43
2022-12-28T07:46:36.188Z,2.10
2022-12-28T07:49:06.127Z,2.10
2022-12-28T07:51:35.161Z,1.50
2022-12-28T07:54:02.380Z,2.20
2022-12-28T07:56:30.306Z,2.60
2022-12-28T07:59:02.299Z,1.67
2022-12-28T08:01:32.214Z,1.80
2022-12-28T08:04:01.834Z,2.00
2022-12-28T08:06:30.415Z,1.93
2022-12-28T08:09:01.884Z,5.33
2022-12-28T08:11:34.652Z,2.03
2022-12-28T08:14:04.800Z,4.70
2022-12-28T08:16:38.381Z,3.83
2022-12-28T08:19:05.770Z,1.77
2022-12-28T08:21:41.237Z,3.87
2022-12-28T08:24:12.745Z,2.43
2022-12-28T08:26:44.186Z,2.70
2022-12-28T08:29:16.995Z,2.13
2022-12-28T08:31:47.302Z,2.37
2022-12-28T08:34:20.607Z,2.00
2022-12-28T08:36:52.039Z,1.60
2022-12-28T08:39:18.704Z,2.40
2022-12-28T08:41:45.406Z,3.10
2022-12-28T08:44:12.050Z,2.90
2022-12-28T08:46:40.784Z,1.40
2022-12-28T08:49:09.853Z,1.57
2022-12-28T08:51:42.188Z,1.73
2022-12-28T08:54:13.877Z,1.40
2022-12-28T08:56:42.719Z,1.83
2022-12-28T08:59:10.859Z,2.50
2022-12-28T09:01:44.044Z,2.17
2022-12-28T09:04:18.476Z,2.00
2022-12-28T09:06:45.654Z,3.07
2022-12-28T09:09:17.339Z,2.07
2022-12-28T09:11:47.003Z,1.40
2022-12-28T09:14:22.047Z,3.13
2022-12-28T09:16:50.276Z,1.73
2022-12-28T09:19:16.976Z,1.43
2022-12-28T09:21:45.294Z,1.53
2022-12-28T09:24:13.407Z,2.33
2022-12-28T09:26:42.554Z,3.33
2022-12-28T09:29:14.330Z,2.33
2022-12-28T09:31:41.707Z,1.85
2022-12-28T09:36:59.798Z,2.33
2022-12-28T09:39:26.941Z,5.17
2022-12-28T09:42:12.082Z,2.43
2022-12-28T09:44:50.856Z,3.17
2022-12-28T09:47:34.018Z,2.10
2022-12-28T09:50:18.705Z,2.13
2022-12-28T09:52:51.071Z,2.30
2022-12-28T09:55:19.302Z,2.30
2022-12-28T09:57:49.692Z,2.30
2022-12-28T10:00:50.309Z,3.50
2022-12-28T10:03:20.734Z,3.17
2022-12-28T10:05:48.072Z,3.55
2022-12-28T10:08:19.539Z,3.70
2022-12-28T10:10:49.177Z,5.67
2022-12-28T10:16:18.938Z,3.70
2022-12-28T10:18:50.090Z,5.87
2022-12-28T10:21:25.416Z,3.70
2022-12-28T10:24:29.829Z,4.50
2022-12-28T10:26:49.686Z,4.20
2022-12-28T10:29:21.767Z,4.57
2022-12-28T10:32:10.541Z,4.60
2022-12-28T10:34:45.008Z,3.80
2022-12-28T10:37:19.042Z,5.47
2022-12-28T10:40:05.494Z,4.50
2022-12-28T10:42:42.593Z,5.50
2022-12-28T10:45:33.641Z,3.93
2022-12-28T10:48:01.878Z,3.50
2022-12-28T10:50:51.277Z,3.17
2022-12-28T10:53:20.258Z,5.63
2022-12-28T10:55:47.046Z,3.87
2022-12-28T10:58:33.824Z,4.97
2022-12-28T11:01:30.617Z,4.87
2022-12-28T11:03:57.440Z,4.47
2022-12-28T11:06:27.598Z,5.23
2022-12-28T11:09:13.064Z,3.20
2022-12-28T11:11:41.022Z,5.63
2022-12-28T11:14:33.957Z,3.93
2022-12-28T11:17:20.834Z,4.70
2022-12-28T11:19:51.985Z,3.60
2022-12-28T11:22:27.007Z,7.30
2022-12-28T11:24:58.510Z,4.40
2022-12-28T11:27:26.629Z,4.47
2022-12-28T11:29:58.095Z,4.00
2022-12-28T11:32:31.410Z,3.47
2022-12-28T11:34:58.592Z,5.40
2022-12-28T11:37:28.329Z,5.03
2022-12-28T11:39:58.903Z,4.60
2022-12-28T11:42:41.946Z,3.27
2022-12-28T11:45:53.399Z,3.37
2022-12-28T11:48:42.884Z,2.90
2022-12-28T11:51:20.906Z,4.27
2022-12-28T11:53:50.021Z,6.80
2022-12-28T11:56:22.441Z,4.17
2022-12-28T11:59:00.560Z,2.77
2022-12-28T12:01:44.743Z,3.53
2022-12-28T12:04:31.501Z,3.37
2022-12-28T12:07:04.029Z,5.03
2022-12-28T12:09:38.594Z,5.17
2022-12-28T12:12:17.845Z,4.22
2022-12-28T12:14:57.363Z,5.30
2022-12-28T12:17:29.599Z,4.03
2022-12-28T12:20:00.330Z,6.23
2022-12-28T12:22:42.488Z,3.50
2022-12-28T12:25:33.667Z,3.57
2022-12-28T12:28:34.323Z,5.47
2022-12-28T12:31:03.903Z,8.20
2022-12-28T12:33:38.074Z,3.20
2022-12-28T12:36:19.859Z,4.43
2022-12-28T12:38:52.341Z,3.27
2022-12-28T12:41:49.333Z,4.17
2022-12-28T12:44:19.060Z,5.10
2022-12-28T12:47:35.351Z,3.53
2022-12-28T12:50:33.497Z,6.57
2022-12-28T12:53:00.145Z,4.68
2022-12-28T12:55:56.873Z,4.60
2022-12-28T12:58:35.237Z,5.03
2022-12-28T13:01:22.849Z,8.43
2022-12-28T13:03:56.289Z,6.97
2022-12-28T13:06:26.247Z,5.47
2022-12-28T13:09:00.427Z,3.80
2022-12-28T13:11:31.438Z,5.22
2022-12-28T13:14:00.498Z,4.07
2022-12-28T13:16:32.611Z,7.23
2022-12-28T13:19:06.546Z,4.33
2022-12-28T13:21:45.489Z,4.47
2022-12-28T13:24:45.757Z,4.63
2022-12-28T13:27:19.421Z,5.17
2022-12-28T13:29:54.440Z,6.30
2022-12-28T13:32:37.736Z,6.10
2022-12-28T13:35:20.338Z,7.97
2022-12-28T13:38:13.225Z,4.67
2022-12-28T13:40:41.489Z,8.70
2022-12-28T13:43:32.117Z,6.10
2022-12-28T13:46:07.924Z,5.37
2022-12-28T13:48:40.683Z,8.60
2022-12-28T13:51:13.616Z,4.70
2022-12-28T13:53:45.701Z,7.23
2022-12-28T13:56:15.572Z,5.57
2022-12-28T13:59:10.814Z,5.50
2022-12-28T14:01:42.096Z,4.87
2022-12-28T14:07:01.816Z,3.73
2022-12-28T14:09:29.143Z,4.70
2022-12-28T14:11:57.197Z,5.20
2022-12-28T14:14:24.500Z,3.87
2022-12-28T14:16:53.881Z,3.47
2022-12-28T14:19:20.632Z,3.67
2022-12-28T14:21:47.385Z,3.90
2022-12-28T14:24:16.386Z,4.73
2022-12-28T14:26:57.782Z,3.77
2022-12-28T14:29:30.911Z,3.17
2022-12-28T14:31:59.873Z,3.93
2022-12-28T14:34:34.453Z,5.07
2022-12-28T14:37:04.269Z,2.97
2022-12-28T14:39:38.010Z,5.07
2022-12-28T14:42:06.434Z,3.50
2022-12-28T14:44:37.844Z,2.80
2022-12-28T14:47:36.526Z,2.80
2022-12-28T14:50:17.725Z,3.97
2022-12-28T14:52:47.511Z,4.13
2022-12-28T14:55:31.754Z,3.00
2022-12-28T14:58:03.513Z,2.80
2022-12-28T15:00:33.636Z,6.20
2022-12-28T15:03:19.814Z,5.63
2022-12-28T15:05:50.396Z,8.27
2022-12-28T15:08:20.180Z,6.45
2022-12-28T15:10:55.724Z,3.93
2022-12-28T15:13:23.059Z,3.90
2022-12-28T15:15:57.648Z,5.13
2022-12-28T15:18:25.069Z,4.70
2022-12-28T15:20:54.998Z,5.93
2022-12-28T15:23:21.735Z,10.30
2022-12-28T15:25:48.959Z,3.13
2022-12-28T15:28:17.924Z,3.47
2022-12-28T15:30:44.954Z,3.13
2022-12-28T15:33:12.325Z,3.90
2022-12-28T15:35:41.211Z,5.87
2022-12-28T15:38:07.960Z,5.97
2022-12-28T15:40:38.558Z,3.10
2022-12-28T15:43:07.401Z,4.77
2022-12-28T15:45:34.103Z,4.93
2022-12-28T15:48:03.348Z,3.80
2022-12-28T15:50:30.121Z,3.47
2022-12-28T15:52:56.858Z,3.90
2022-12-28T15:55:23.491Z,3.97
2022-12-28T15:57:50.149Z,3.47
2022-12-28T16:00:18.960Z,4.47
2022-12-28T16:02:48.035Z,3.80
2022-12-28T16:05:17.278Z,3.38
2022-12-28T16:07:48.700Z,3.10
2022-12-28T16:10:15.751Z,5.27
2022-12-28T16:12:42.423Z,4.97
2022-12-28T16:15:09.530Z,5.00
2022-12-28T16:17:43.317Z,4.23
2022-12-28T16:20:17.320Z,3.90
2022-12-28T16:22:44.007Z,3.30
2022-12-28T16:25:13.230Z,3.33
2022-12-28T16:27:44.496Z,5.50
2022-12-28T16:30:11.866Z,6.67
2022-12-28T16:32:38.522Z,4.07
2022-12-28T16:35:08.265Z,3.60
2022-12-28T16:37:35.076Z,4.50
2022-12-28T16:40:01.967Z,3.47
2022-12-28T16:42:32.077Z,4.27
2022-12-28T16:45:01.023Z,5.33
2022-12-28T16:47:32.581Z,3.50
2022-12-28T16:49:59.256Z,4.47
2022-12-28T16:52:28.154Z,3.83
2022-12-28T16:54:57.738Z,4.73
2022-12-28T16:57:24.377Z,4.03
2022-12-28T16:59:51.122Z,3.10
2022-12-28T17:02:17.987Z,4.63
2022-12-28T17:04:44.773Z,3.45
2022-12-28T17:07:13.632Z,5.20
2022-12-28T17:09:44.062Z,3.40
2022-12-28T17:12:15.861Z,3.30
2022-12-28T17:14:42.474Z,5.37
2022-12-28T17:17:11.683Z,3.72
2022-12-28T17:19:38.467Z,2.53
2022-12-28T17:22:05.640Z,5.17
2022-12-28T17:24:34.549Z,3.53
2022-12-28T17:27:07.244Z,3.03
2022-12-28T17:29:37.031Z,3.13
2022-12-28T17:32:05.270Z,2.93
2022-12-28T17:34:32.192Z,8.00
2022-12-28T17:36:59.053Z,3.23
2022-12-28T17:39:25.735Z,2.90
2022-12-28T17:41:52.444Z,3.27
2022-12-28T17:44:21.483Z,3.20
2022-12-28T17:46:50.688Z,3.17
2022-12-28T17:49:17.781Z,4.13
2022-12-28T17:51:44.584Z,2.70
2022-12-28T17:54:13.235Z,2.30
2022-12-28T17:56:42.890Z,2.50
2022-12-28T17:59:14.414Z,2.70
2022-12-28T18:01:43.634Z,4.17
2022-12-28T18:04:12.728Z,2.63
2022-12-28T18:06:41.674Z,4.13
2022-12-28T18:09:12.782Z,2.70
2022-12-28T18:11:39.524Z,3.07
2022-12-28T18:14:08.611Z,3.23
2022-12-28T18:16:37.834Z,2.40
2022-12-28T18:19:04.676Z,2.90
2022-12-28T18:21:31.326Z,3.63
2022-12-28T18:23:57.961Z,3.00
2022-12-28T18:26:26.342Z,2.60
2022-12-28T18:28:54.768Z,3.20
2022-12-28T18:31:24.526Z,3.13
2022-12-28T18:34:01.785Z,4.20
2022-12-28T18:36:28.826Z,3.17
2022-12-28T18:38:57.676Z,2.70
2022-12-28T18:41:27.677Z,2.70
2022-12-28T18:43:59.570Z,2.93
2022-12-28T18:46:26.325Z,3.47
2022-12-28T18:48:56.596Z,3.00
2022-12-28T18:51:25.972Z,2.60
2022-12-28T18:53:55.210Z,2.80
2022-12-28T18:56:24.322Z,2.87
2022-12-28T18:58:53.384Z,2.47
2022-12-28T19:04:20.462Z,5.20
2022-12-28T19:06:47.588Z,2.83
2022-12-28T19:09:14.590Z,2.55
2022-12-28T19:11:46.167Z,2.40
2022-12-28T19:14:14.636Z,2.40
2022-12-28T19:16:41.706Z,2.70
2022-12-28T19:19:08.460Z,2.80
2022-12-28T19:21:41.440Z,2.80
2022-12-28T19:24:19.445Z,2.53
2022-12-28T19:26:47.051Z,3.80
2022-12-28T19:29:15.648Z,3.20
2022-12-28T19:31:42.793Z,1.80
2022-12-28T19:34:14.229Z,2.30
2022-12-28T19:36:43.191Z,2.40
2022-12-28T19:39:11.236Z,2.87
2022-12-28T19:41:38.412Z,4.00
2022-12-28T19:44:05.334Z,2.27
2022-12-28T19:46:32.627Z,2.70
2022-12-28T19:49:06.127Z,2.83
2022-12-28T19:51:35.245Z,3.63
2022-12-28T19:54:02.680Z,2.30
2022-12-28T19:56:29.782Z,3.40
2022-12-28T19:59:04.994Z,2.57
2022-12-28T20:01:36.165Z,2.70
2022-12-28T20:04:08.756Z,2.20
2022-12-28T20:06:39.504Z,2.37
2022-12-28T20:09:06.422Z,2.33
2022-12-28T20:11:33.124Z,2.10
2022-12-28T20:14:04.149Z,3.55
2022-12-28T20:16:37.887Z,4.40
2022-12-28T20:19:08.726Z,2.97
2022-12-28T20:21:42.063Z,3.40
2022-12-28T20:24:10.541Z,2.40
2022-12-28T20:26:37.366Z,2.10
2022-12-28T20:29:06.736Z,2.97
2022-12-28T20:31:33.528Z,2.43
2022-12-28T20:34:00.471Z,2.23
2022-12-28T20:36:28.814Z,2.20
2022-12-28T20:38:56.525Z,2.23
2022-12-28T20:41:47.406Z,2.93
2022-12-28T20:44:21.387Z,2.03
2022-12-28T20:46:48.190Z,4.03
2022-12-28T20:49:14.967Z,2.13
2022-12-28T20:51:42.667Z,2.10
2022-12-28T20:54:15.257Z,2.77
2022-12-28T20:56:42.280Z,2.50
2022-12-28T20:59:10.327Z,1.80
2022-12-28T21:01:37.623Z,2.20
2022-12-28T21:04:05.405Z,2.73
2022-12-28T21:06:37.302Z,1.90
2022-12-28T21:09:06.575Z,2.00
2022-12-28T21:11:33.456Z,2.13
2022-12-28T21:14:00.686Z,2.03
2022-12-28T21:16:31.985Z,2.07
2022-12-28T21:19:01.030Z,2.30
2022-12-28T21:21:27.715Z,2.17
2022-12-28T21:23:54.437Z,1.77
2022-12-28T21:26:21.336Z,1.93
2022-12-28T21:28:48.462Z,2.20
2022-12-28T21:31:17.771Z,2.13
2022-12-28T21:33:44.634Z,1.93
2022-12-28T21:36:16.945Z,2.60
2022-12-28T21:38:45.092Z,2.10
2022-12-28T21:41:37.463Z,2.10
2022-12-28T21:44:06.396Z,2.13
2022-12-28T21:46:34.399Z,4.53
2022-12-28T21:49:03.387Z,2.03
2022-12-28T21:51:32.533Z,1.90
2022-12-28T21:54:05.982Z,2.90
2022-12-28T21:56:36.110Z,3.13
2022-12-28T21:59:03.190Z,1.83
2022-12-28T22:01:48.905Z,2.13
2022-12-28T22:04:36.287Z,2.10
2022-12-28T22:07:04.011Z,3.67
2022-12-28T22:09:49.378Z,1.70
2022-12-28T22:12:34.511Z,1.67
2022-12-28T22:15:33.097Z,1.90
2022-12-28T22:18:08.503Z,2.27
2022-12-28T22:20:37.780Z,1.90
2022-12-28T22:23:06.173Z,1.90
2022-12-28T22:25:33.474Z,2.10
2022-12-28T22:28:02.409Z,1.70
2022-12-28T22:30:30.976Z,2.30
2022-12-28T22:32:58.089Z,1.90
2022-12-28T22:35:24.819Z,1.80
2022-12-28T22:37:51.669Z,1.90
2022-12-28T22:40:23.180Z,1.90
2022-12-28T22:42:50.773Z,1.83
2022-12-28T22:45:23.397Z,3.27
2022-12-28T22:47:59.028Z,3.30
2022-12-28T22:50:27.571Z,1.97
2022-12-28T22:52:58.388Z,1.70
2022-12-28T22:55:25.151Z,2.70
2022-12-28T22:57:51.846Z,1.73
2022-12-28T23:00:20.993Z,1.93
2022-12-28T23:02:47.876Z,2.10
2022-12-28T23:05:14.745Z,2.97
2022-12-28T23:07:43.684Z,2.60
2022-12-28T23:10:10.563Z,2.17
2022-12-28T23:12:37.572Z,2.40
2022-12-28T23:15:19.647Z,1.60
2022-12-28T23:17:48.860Z,2.10
2022-12-28T23:20:48.691Z,2.37
2022-12-28T23:23:34.201Z,2.17
2022-12-28T23:26:19.698Z,2.10
2022-12-28T23:28:46.453Z,2.10
2022-12-28T23:31:13.195Z,1.83
2022-12-28T23:33:39.911Z,2.20
2022-12-28T23:36:07.032Z,2.23
2022-12-28T23:38:36.051Z,2.13
2022-12-28T23:41:25.135Z,1.90
2022-12-28T23:43:53.084Z,2.10
2022-12-28T23:46:19.810Z,3.83
2022-12-28T23:48:46.547Z,1.83
2022-12-28T23:51:15.172Z,1.83
2022-12-28T23:53:46.606Z,1.60
2022-12-28T23:56:15.846Z,2.13
2022-12-28T23:58:42.596Z,1.63
